Val Marie, Canada
Current Conditions -  °F | °C
As of 12:00 AM on Thursday 23 Oct 2014 (Local Time) from CYYN Reporting Station
Clear Clear  
Wind Chill: 36°   Ceiling: Unl
Heat Index: 43°   Visibility: 9mi
Dew Point: 36°   Wind: 14mph
Humidity: 76%   Direction: 210°SSW
Pressure: 29.75"   Gusts: NA
Location:  49.23°N, 107.73°W
Report Text: CYYN 230600Z AUTO 21012KT 9SM CLR 06/02 A2975 RMK SLP086
Loading
Personal Weather Stations






























Interactive Weather Map
Tropical Storm Tracking
New forecast layout! Learn more

10-Day Weather Forecast

Advertisements
Track Severe Weather on mobile